sensor_id;sensor_type;location;lat;lon;timestamp;P1;durP1;ratioP1;P2;durP2;ratioP2
48805;SDS011;34625;47.176;27.548;2023-05-24T00:02:25;6.55;;;5.10;;
48805;SDS011;34625;47.176;27.548;2023-05-24T00:04:51;8.95;;;5.07;;
48805;SDS011;34625;47.176;27.548;2023-05-24T00:07:18;7.00;;;4.85;;
48805;SDS011;34625;47.176;27.548;2023-05-24T00:09:44;6.05;;;4.60;;
48805;SDS011;34625;47.176;27.548;2023-05-24T00:12:10;6.05;;;4.07;;
48805;SDS011;34625;47.176;27.548;2023-05-24T00:14:36;5.50;;;4.60;;
48805;SDS011;34625;47.176;27.548;2023-05-24T00:17:02;6.85;;;5.15;;
48805;SDS011;34625;47.176;27.548;2023-05-24T00:19:28;8.60;;;5.03;;
48805;SDS011;34625;47.176;27.548;2023-05-24T00:21:54;8.43;;;5.18;;
48805;SDS011;34625;47.176;27.548;2023-05-24T00:24:20;11.07;;;6.18;;
48805;SDS011;34625;47.176;27.548;2023-05-24T00:26:46;9.07;;;5.53;;
48805;SDS011;34625;47.176;27.548;2023-05-24T00:29:12;12.43;;;4.97;;
48805;SDS011;34625;47.176;27.548;2023-05-24T00:31:39;12.82;;;6.05;;
48805;SDS011;34625;47.176;27.548;2023-05-24T00:34:05;9.77;;;6.20;;
48805;SDS011;34625;47.176;27.548;2023-05-24T00:36:32;11.05;;;6.38;;
48805;SDS011;34625;47.176;27.548;2023-05-24T00:38:58;11.63;;;5.85;;
48805;SDS011;34625;47.176;27.548;2023-05-24T00:41:24;9.45;;;5.68;;
48805;SDS011;34625;47.176;27.548;2023-05-24T00:43:51;7.85;;;5.43;;
48805;SDS011;34625;47.176;27.548;2023-05-24T00:46:20;9.02;;;4.85;;
48805;SDS011;34625;47.176;27.548;2023-05-24T00:48:52;12.00;;;5.32;;
48805;SDS011;34625;47.176;27.548;2023-05-24T00:51:19;8.10;;;5.32;;
48805;SDS011;34625;47.176;27.548;2023-05-24T00:53:46;8.30;;;5.80;;
48805;SDS011;34625;47.176;27.548;2023-05-24T00:56:13;9.82;;;5.75;;
48805;SDS011;34625;47.176;27.548;2023-05-24T00:58:40;10.05;;;5.47;;
48805;SDS011;34625;47.176;27.548;2023-05-24T01:01:06;11.02;;;5.22;;
48805;SDS011;34625;47.176;27.548;2023-05-24T01:03:33;7.85;;;4.72;;
48805;SDS011;34625;47.176;27.548;2023-05-24T01:06:00;8.27;;;4.78;;
48805;SDS011;34625;47.176;27.548;2023-05-24T01:10:55;7.03;;;4.78;;
48805;SDS011;34625;47.176;27.548;2023-05-24T01:16:04;7.82;;;5.28;;
48805;SDS011;34625;47.176;27.548;2023-05-24T01:18:39;9.10;;;5.25;;
48805;SDS011;34625;47.176;27.548;2023-05-24T01:23:53;9.00;;;5.35;;
48805;SDS011;34625;47.176;27.548;2023-05-24T01:29:15;9.38;;;4.63;;
48805;SDS011;34625;47.176;27.548;2023-05-24T01:31:42;9.80;;;5.53;;
48805;SDS011;34625;47.176;27.548;2023-05-24T01:34:09;9.73;;;5.93;;
48805;SDS011;34625;47.176;27.548;2023-05-24T01:36:36;9.15;;;5.20;;
48805;SDS011;34625;47.176;27.548;2023-05-24T01:39:02;9.35;;;5.45;;
48805;SDS011;34625;47.176;27.548;2023-05-24T01:44:17;9.85;;;6.00;;
48805;SDS011;34625;47.176;27.548;2023-05-24T01:47:14;12.30;;;5.68;;
48805;SDS011;34625;47.176;27.548;2023-05-24T01:49:58;12.63;;;5.50;;
48805;SDS011;34625;47.176;27.548;2023-05-24T01:52:32;7.47;;;5.43;;
48805;SDS011;34625;47.176;27.548;2023-05-24T01:55:01;9.95;;;5.07;;
48805;SDS011;34625;47.176;27.548;2023-05-24T01:57:30;7.20;;;5.28;;
48805;SDS011;34625;47.176;27.548;2023-05-24T01:59:58;8.10;;;6.15;;
48805;SDS011;34625;47.176;27.548;2023-05-24T02:02:26;7.10;;;4.88;;
48805;SDS011;34625;47.176;27.548;2023-05-24T02:04:52;7.07;;;5.13;;
48805;SDS011;34625;47.176;27.548;2023-05-24T02:07:18;8.18;;;5.35;;
48805;SDS011;34625;47.176;27.548;2023-05-24T02:09:44;7.55;;;5.07;;
48805;SDS011;34625;47.176;27.548;2023-05-24T02:12:11;7.40;;;5.30;;
48805;SDS011;34625;47.176;27.548;2023-05-24T02:14:38;6.20;;;5.60;;
48805;SDS011;34625;47.176;27.548;2023-05-24T02:17:06;9.32;;;6.07;;
48805;SDS011;34625;47.176;27.548;2023-05-24T02:19:34;10.13;;;5.70;;
48805;SDS011;34625;47.176;27.548;2023-05-24T02:22:01;9.18;;;5.70;;
48805;SDS011;34625;47.176;27.548;2023-05-24T02:24:28;8.35;;;5.88;;
48805;SDS011;34625;47.176;27.548;2023-05-24T02:26:54;9.02;;;5.88;;
48805;SDS011;34625;47.176;27.548;2023-05-24T02:29:21;8.52;;;5.60;;
48805;SDS011;34625;47.176;27.548;2023-05-24T02:31:47;6.72;;;5.28;;
48805;SDS011;34625;47.176;27.548;2023-05-24T02:34:19;9.70;;;5.22;;
48805;SDS011;34625;47.176;27.548;2023-05-24T02:36:45;9.85;;;5.47;;
48805;SDS011;34625;47.176;27.548;2023-05-24T02:39:11;6.93;;;5.43;;
48805;SDS011;34625;47.176;27.548;2023-05-24T02:41:37;8.50;;;5.88;;
48805;SDS011;34625;47.176;27.548;2023-05-24T02:44:03;9.90;;;5.43;;
48805;SDS011;34625;47.176;27.548;2023-05-24T02:46:29;10.18;;;5.40;;
48805;SDS011;34625;47.176;27.548;2023-05-24T02:48:55;7.00;;;5.18;;
48805;SDS011;34625;47.176;27.548;2023-05-24T02:51:21;6.65;;;4.60;;
48805;SDS011;34625;47.176;27.548;2023-05-24T02:53:47;7.05;;;4.38;;
48805;SDS011;34625;47.176;27.548;2023-05-24T02:56:14;10.30;;;5.55;;
48805;SDS011;34625;47.176;27.548;2023-05-24T02:58:42;8.60;;;4.82;;
48805;SDS011;34625;47.176;27.548;2023-05-24T03:01:10;9.27;;;4.90;;
48805;SDS011;34625;47.176;27.548;2023-05-24T03:03:39;8.93;;;5.15;;
48805;SDS011;34625;47.176;27.548;2023-05-24T03:06:06;10.45;;;5.50;;
48805;SDS011;34625;47.176;27.548;2023-05-24T03:08:33;6.55;;;5.40;;
48805;SDS011;34625;47.176;27.548;2023-05-24T03:10:59;10.45;;;5.38;;
48805;SDS011;34625;47.176;27.548;2023-05-24T03:13:25;11.60;;;5.90;;
48805;SDS011;34625;47.176;27.548;2023-05-24T03:15:51;9.02;;;5.88;;
48805;SDS011;34625;47.176;27.548;2023-05-24T03:18:17;9.10;;;6.22;;
48805;SDS011;34625;47.176;27.548;2023-05-24T03:20:44;8.20;;;5.13;;
48805;SDS011;34625;47.176;27.548;2023-05-24T03:23:12;8.80;;;6.13;;
48805;SDS011;34625;47.176;27.548;2023-05-24T03:25:39;15.30;;;6.00;;
48805;SDS011;34625;47.176;27.548;2023-05-24T03:28:05;10.95;;;6.10;;
48805;SDS011;34625;47.176;27.548;2023-05-24T03:30:32;9.75;;;5.00;;
48805;SDS011;34625;47.176;27.548;2023-05-24T03:33:01;7.78;;;4.88;;
48805;SDS011;34625;47.176;27.548;2023-05-24T03:35:27;13.27;;;5.80;;
48805;SDS011;34625;47.176;27.548;2023-05-24T03:37:54;8.18;;;5.95;;
48805;SDS011;34625;47.176;27.548;2023-05-24T03:40:20;13.32;;;6.03;;
48805;SDS011;34625;47.176;27.548;2023-05-24T03:43:01;10.52;;;6.00;;
48805;SDS011;34625;47.176;27.548;2023-05-24T03:45:46;6.88;;;5.55;;
48805;SDS011;34625;47.176;27.548;2023-05-24T03:48:12;9.82;;;6.03;;
48805;SDS011;34625;47.176;27.548;2023-05-24T03:50:38;12.57;;;5.95;;
48805;SDS011;34625;47.176;27.548;2023-05-24T03:53:04;7.50;;;5.63;;
48805;SDS011;34625;47.176;27.548;2023-05-24T03:55:30;14.18;;;5.60;;
48805;SDS011;34625;47.176;27.548;2023-05-24T03:57:56;7.97;;;5.55;;
48805;SDS011;34625;47.176;27.548;2023-05-24T04:00:22;7.45;;;5.50;;
48805;SDS011;34625;47.176;27.548;2023-05-24T04:02:48;10.02;;;6.13;;
48805;SDS011;34625;47.176;27.548;2023-05-24T04:05:15;9.30;;;5.55;;
48805;SDS011;34625;47.176;27.548;2023-05-24T04:07:41;10.15;;;7.20;;
48805;SDS011;34625;47.176;27.548;2023-05-24T04:10:10;9.32;;;6.28;;
48805;SDS011;34625;47.176;27.548;2023-05-24T04:12:37;10.45;;;5.55;;
48805;SDS011;34625;47.176;27.548;2023-05-24T04:15:05;8.75;;;6.18;;
48805;SDS011;34625;47.176;27.548;2023-05-24T04:17:31;10.63;;;6.50;;
48805;SDS011;34625;47.176;27.548;2023-05-24T04:19:59;10.63;;;6.05;;
48805;SDS011;34625;47.176;27.548;2023-05-24T04:22:26;18.35;;;6.43;;
48805;SDS011;34625;47.176;27.548;2023-05-24T04:24:55;10.38;;;7.05;;
48805;SDS011;34625;47.176;27.548;2023-05-24T04:27:21;7.15;;;5.40;;
48805;SDS011;34625;47.176;27.548;2023-05-24T04:29:50;10.60;;;6.10;;
48805;SDS011;34625;47.176;27.548;2023-05-24T04:32:17;9.07;;;6.43;;
48805;SDS011;34625;47.176;27.548;2023-05-24T04:34:44;9.65;;;6.57;;
48805;SDS011;34625;47.176;27.548;2023-05-24T04:37:11;11.98;;;6.30;;
48805;SDS011;34625;47.176;27.548;2023-05-24T04:39:38;12.85;;;6.15;;
48805;SDS011;34625;47.176;27.548;2023-05-24T04:42:05;8.10;;;5.43;;
48805;SDS011;34625;47.176;27.548;2023-05-24T04:44:31;4.35;;;1.60;;
48805;SDS011;34625;47.176;27.548;2023-05-24T04:46:58;1.15;;;1.08;;
48805;SDS011;34625;47.176;27.548;2023-05-24T04:49:25;1.30;;;1.30;;
48805;SDS011;34625;47.176;27.548;2023-05-24T04:51:51;1.25;;;1.25;;
48805;SDS011;34625;47.176;27.548;2023-05-24T04:54:17;8.40;;;3.90;;
48805;SDS011;34625;47.176;27.548;2023-05-24T04:56:43;5.53;;;2.75;;
48805;SDS011;34625;47.176;27.548;2023-05-24T04:59:09;4.93;;;3.15;;
48805;SDS011;34625;47.176;27.548;2023-05-24T05:01:35;4.25;;;3.53;;
48805;SDS011;34625;47.176;27.548;2023-05-24T05:04:01;5.75;;;3.22;;
48805;SDS011;34625;47.176;27.548;2023-05-24T05:06:30;7.60;;;2.80;;
48805;SDS011;34625;47.176;27.548;2023-05-24T05:08:59;3.03;;;2.40;;
48805;SDS011;34625;47.176;27.548;2023-05-24T05:11:25;9.57;;;4.00;;
48805;SDS011;34625;47.176;27.548;2023-05-24T05:13:52;5.70;;;1.98;;
48805;SDS011;34625;47.176;27.548;2023-05-24T05:16:19;3.20;;;2.10;;
48805;SDS011;34625;47.176;27.548;2023-05-24T05:18:44;8.13;;;2.58;;
48805;SDS011;34625;47.176;27.548;2023-05-24T05:21:10;9.93;;;6.72;;
48805;SDS011;34625;47.176;27.548;2023-05-24T05:23:36;10.65;;;6.40;;
48805;SDS011;34625;47.176;27.548;2023-05-24T05:26:04;16.98;;;11.50;;
48805;SDS011;34625;47.176;27.548;2023-05-24T05:28:31;19.27;;;11.40;;
48805;SDS011;34625;47.176;27.548;2023-05-24T05:30:57;18.08;;;10.55;;
48805;SDS011;34625;47.176;27.548;2023-05-24T05:33:23;16.33;;;10.40;;
48805;SDS011;34625;47.176;27.548;2023-05-24T05:35:50;18.65;;;10.40;;
48805;SDS011;34625;47.176;27.548;2023-05-24T05:38:16;15.93;;;10.43;;
48805;SDS011;34625;47.176;27.548;2023-05-24T05:40:42;18.30;;;9.82;;
48805;SDS011;34625;47.176;27.548;2023-05-24T05:43:08;12.90;;;8.80;;
48805;SDS011;34625;47.176;27.548;2023-05-24T05:45:34;15.68;;;9.73;;
48805;SDS011;34625;47.176;27.548;2023-05-24T05:48:00;15.48;;;8.07;;
48805;SDS011;34625;47.176;27.548;2023-05-24T05:50:26;12.63;;;6.95;;
48805;SDS011;34625;47.176;27.548;2023-05-24T05:52:52;13.02;;;6.75;;
48805;SDS011;34625;47.176;27.548;2023-05-24T05:55:18;8.52;;;6.03;;
48805;SDS011;34625;47.176;27.548;2023-05-24T05:57:44;15.52;;;7.07;;
48805;SDS011;34625;47.176;27.548;2023-05-24T06:00:10;9.40;;;5.43;;
48805;SDS011;34625;47.176;27.548;2023-05-24T06:02:39;10.35;;;5.97;;
48805;SDS011;34625;47.176;27.548;2023-05-24T06:05:05;11.73;;;6.28;;
48805;SDS011;34625;47.176;27.548;2023-05-24T06:07:32;10.07;;;6.30;;
48805;SDS011;34625;47.176;27.548;2023-05-24T06:09:58;11.48;;;5.43;;
48805;SDS011;34625;47.176;27.548;2023-05-24T06:12:24;9.85;;;5.80;;
48805;SDS011;34625;47.176;27.548;2023-05-24T06:14:51;9.68;;;5.15;;
48805;SDS011;34625;47.176;27.548;2023-05-24T06:17:17;10.68;;;5.78;;
48805;SDS011;34625;47.176;27.548;2023-05-24T06:19:43;10.98;;;4.82;;
48805;SDS011;34625;47.176;27.548;2023-05-24T06:22:10;6.95;;;5.15;;
48805;SDS011;34625;47.176;27.548;2023-05-24T06:24:36;8.40;;;5.72;;
48805;SDS011;34625;47.176;27.548;2023-05-24T06:27:03;9.43;;;5.93;;
48805;SDS011;34625;47.176;27.548;2023-05-24T06:29:29;14.65;;;6.65;;
48805;SDS011;34625;47.176;27.548;2023-05-24T06:31:55;10.23;;;6.30;;
48805;SDS011;34625;47.176;27.548;2023-05-24T06:34:21;9.68;;;5.68;;
48805;SDS011;34625;47.176;27.548;2023-05-24T06:36:47;8.88;;;4.72;;
48805;SDS011;34625;47.176;27.548;2023-05-24T06:39:15;7.88;;;4.85;;
48805;SDS011;34625;47.176;27.548;2023-05-24T06:41:42;9.82;;;5.90;;
48805;SDS011;34625;47.176;27.548;2023-05-24T06:44:09;12.23;;;5.35;;
48805;SDS011;34625;47.176;27.548;2023-05-24T06:46:35;8.38;;;5.43;;
48805;SDS011;34625;47.176;27.548;2023-05-24T06:49:01;9.65;;;5.03;;
48805;SDS011;34625;47.176;27.548;2023-05-24T06:51:28;8.48;;;5.65;;
48805;SDS011;34625;47.176;27.548;2023-05-24T06:53:54;9.45;;;5.10;;
48805;SDS011;34625;47.176;27.548;2023-05-24T06:56:20;8.93;;;5.30;;
48805;SDS011;34625;47.176;27.548;2023-05-24T06:58:47;13.55;;;5.15;;
48805;SDS011;34625;47.176;27.548;2023-05-24T07:01:13;10.10;;;5.22;;
48805;SDS011;34625;47.176;27.548;2023-05-24T07:03:39;10.85;;;4.88;;
48805;SDS011;34625;47.176;27.548;2023-05-24T07:06:05;4.05;;;2.58;;
48805;SDS011;34625;47.176;27.548;2023-05-24T07:08:34;2.85;;;2.60;;
48805;SDS011;34625;47.176;27.548;2023-05-24T07:11:00;0.95;;;0.95;;
48805;SDS011;34625;47.176;27.548;2023-05-24T07:13:26;4.95;;;2.40;;
48805;SDS011;34625;47.176;27.548;2023-05-24T07:15:52;3.38;;;1.83;;
48805;SDS011;34625;47.176;27.548;2023-05-24T07:18:18;8.63;;;4.88;;
48805;SDS011;34625;47.176;27.548;2023-05-24T07:20:44;9.63;;;5.10;;
48805;SDS011;34625;47.176;27.548;2023-05-24T07:23:10;11.23;;;4.95;;
48805;SDS011;34625;47.176;27.548;2023-05-24T07:25:37;8.07;;;5.70;;
48805;SDS011;34625;47.176;27.548;2023-05-24T07:28:03;10.02;;;4.88;;
48805;SDS011;34625;47.176;27.548;2023-05-24T07:30:29;3.97;;;2.53;;
48805;SDS011;34625;47.176;27.548;2023-05-24T07:32:55;10.00;;;4.85;;
48805;SDS011;34625;47.176;27.548;2023-05-24T07:35:21;11.55;;;5.00;;
48805;SDS011;34625;47.176;27.548;2023-05-24T07:37:48;8.18;;;5.35;;
48805;SDS011;34625;47.176;27.548;2023-05-24T07:40:14;7.57;;;4.88;;
48805;SDS011;34625;47.176;27.548;2023-05-24T07:42:40;14.40;;;4.45;;
48805;SDS011;34625;47.176;27.548;2023-05-24T07:45:06;12.95;;;4.45;;
48805;SDS011;34625;47.176;27.548;2023-05-24T07:47:34;6.35;;;4.65;;
48805;SDS011;34625;47.176;27.548;2023-05-24T07:50:01;9.48;;;4.40;;
48805;SDS011;34625;47.176;27.548;2023-05-24T07:52:28;7.00;;;4.28;;
48805;SDS011;34625;47.176;27.548;2023-05-24T07:54:54;14.07;;;4.70;;
48805;SDS011;34625;47.176;27.548;2023-05-24T07:57:20;11.73;;;4.35;;
48805;SDS011;34625;47.176;27.548;2023-05-24T07:59:47;9.63;;;4.47;;
48805;SDS011;34625;47.176;27.548;2023-05-24T08:02:13;8.45;;;4.38;;
48805;SDS011;34625;47.176;27.548;2023-05-24T08:04:41;4.97;;;3.85;;
48805;SDS011;34625;47.176;27.548;2023-05-24T08:07:08;10.93;;;4.18;;
48805;SDS011;34625;47.176;27.548;2023-05-24T08:09:34;7.00;;;3.67;;
48805;SDS011;34625;47.176;27.548;2023-05-24T08:12:01;6.07;;;3.88;;
48805;SDS011;34625;47.176;27.548;2023-05-24T08:14:28;4.00;;;3.08;;
48805;SDS011;34625;47.176;27.548;2023-05-24T08:16:54;4.38;;;3.45;;
48805;SDS011;34625;47.176;27.548;2023-05-24T08:19:20;5.82;;;3.05;;
48805;SDS011;34625;47.176;27.548;2023-05-24T08:21:46;4.78;;;3.50;;
48805;SDS011;34625;47.176;27.548;2023-05-24T08:24:12;3.33;;;2.72;;
48805;SDS011;34625;47.176;27.548;2023-05-24T08:26:38;3.53;;;3.22;;
48805;SDS011;34625;47.176;27.548;2023-05-24T08:29:04;5.43;;;3.00;;
48805;SDS011;34625;47.176;27.548;2023-05-24T08:31:30;6.35;;;3.00;;
48805;SDS011;34625;47.176;27.548;2023-05-24T08:33:57;4.82;;;3.30;;
48805;SDS011;34625;47.176;27.548;2023-05-24T08:36:23;2.58;;;2.38;;
48805;SDS011;34625;47.176;27.548;2023-05-24T08:38:49;3.88;;;2.53;;
48805;SDS011;34625;47.176;27.548;2023-05-24T08:41:15;4.28;;;3.10;;
48805;SDS011;34625;47.176;27.548;2023-05-24T08:43:41;5.00;;;2.35;;
48805;SDS011;34625;47.176;27.548;2023-05-24T08:46:10;3.65;;;2.92;;
48805;SDS011;34625;47.176;27.548;2023-05-24T08:48:43;6.57;;;2.88;;
48805;SDS011;34625;47.176;27.548;2023-05-24T08:51:12;4.40;;;3.03;;
48805;SDS011;34625;47.176;27.548;2023-05-24T08:53:40;4.40;;;2.88;;
48805;SDS011;34625;47.176;27.548;2023-05-24T08:56:15;5.05;;;3.17;;
48805;SDS011;34625;47.176;27.548;2023-05-24T08:58:42;5.25;;;3.25;;
48805;SDS011;34625;47.176;27.548;2023-05-24T09:01:10;4.78;;;4.28;;
48805;SDS011;34625;47.176;27.548;2023-05-24T09:03:37;5.57;;;2.75;;
48805;SDS011;34625;47.176;27.548;2023-05-24T09:06:07;8.45;;;3.03;;
48805;SDS011;34625;47.176;27.548;2023-05-24T09:08:34;5.78;;;3.17;;
48805;SDS011;34625;47.176;27.548;2023-05-24T09:11:02;3.67;;;2.85;;
48805;SDS011;34625;47.176;27.548;2023-05-24T09:13:32;3.15;;;2.50;;
48805;SDS011;34625;47.176;27.548;2023-05-24T09:15:59;5.18;;;3.30;;
48805;SDS011;34625;47.176;27.548;2023-05-24T09:18:26;4.72;;;3.17;;
48805;SDS011;34625;47.176;27.548;2023-05-24T09:20:52;4.38;;;3.00;;
48805;SDS011;34625;47.176;27.548;2023-05-24T09:23:18;2.70;;;2.47;;
48805;SDS011;34625;47.176;27.548;2023-05-24T09:25:45;4.30;;;3.05;;
48805;SDS011;34625;47.176;27.548;2023-05-24T09:28:13;3.58;;;2.72;;
48805;SDS011;34625;47.176;27.548;2023-05-24T09:30:42;2.20;;;2.00;;
48805;SDS011;34625;47.176;27.548;2023-05-24T09:33:09;3.30;;;2.67;;
48805;SDS011;34625;47.176;27.548;2023-05-24T09:35:35;2.72;;;2.28;;
48805;SDS011;34625;47.176;27.548;2023-05-24T09:38:01;2.65;;;2.40;;
48805;SDS011;34625;47.176;27.548;2023-05-24T09:40:28;2.88;;;2.58;;
48805;SDS011;34625;47.176;27.548;2023-05-24T09:43:09;3.70;;;2.95;;
48805;SDS011;34625;47.176;27.548;2023-05-24T09:45:45;3.72;;;2.45;;
48805;SDS011;34625;47.176;27.548;2023-05-24T09:48:12;2.70;;;2.50;;
48805;SDS011;34625;47.176;27.548;2023-05-24T09:50:39;2.85;;;2.30;;
48805;SDS011;34625;47.176;27.548;2023-05-24T09:53:06;4.28;;;3.05;;
48805;SDS011;34625;47.176;27.548;2023-05-24T09:55:35;3.67;;;2.38;;
48805;SDS011;34625;47.176;27.548;2023-05-24T09:58:03;3.83;;;2.58;;
48805;SDS011;34625;47.176;27.548;2023-05-24T10:00:39;2.90;;;2.53;;
48805;SDS011;34625;47.176;27.548;2023-05-24T10:03:06;4.63;;;2.38;;
48805;SDS011;34625;47.176;27.548;2023-05-24T10:05:33;3.58;;;2.35;;
48805;SDS011;34625;47.176;27.548;2023-05-24T10:08:00;3.33;;;2.33;;
48805;SDS011;34625;47.176;27.548;2023-05-24T10:10:30;3.55;;;2.22;;
48805;SDS011;34625;47.176;27.548;2023-05-24T10:12:58;5.28;;;2.58;;
48805;SDS011;34625;47.176;27.548;2023-05-24T10:15:25;3.45;;;1.90;;
48805;SDS011;34625;47.176;27.548;2023-05-24T10:17:55;3.63;;;2.47;;
48805;SDS011;34625;47.176;27.548;2023-05-24T10:20:24;1.45;;;1.33;;
48805;SDS011;34625;47.176;27.548;2023-05-24T10:22:52;1.63;;;1.52;;
48805;SDS011;34625;47.176;27.548;2023-05-24T10:25:23;2.03;;;1.80;;
48805;SDS011;34625;47.176;27.548;2023-05-24T10:28:03;3.70;;;2.38;;
48805;SDS011;34625;47.176;27.548;2023-05-24T10:30:36;7.68;;;3.03;;
48805;SDS011;34625;47.176;27.548;2023-05-24T10:33:07;4.28;;;3.28;;
48805;SDS011;34625;47.176;27.548;2023-05-24T10:35:36;4.60;;;2.83;;
48805;SDS011;34625;47.176;27.548;2023-05-24T10:38:07;3.47;;;2.72;;
48805;SDS011;34625;47.176;27.548;2023-05-24T10:40:34;6.63;;;3.15;;
48805;SDS011;34625;47.176;27.548;2023-05-24T10:43:05;3.03;;;2.72;;
48805;SDS011;34625;47.176;27.548;2023-05-24T10:45:33;5.07;;;3.10;;
48805;SDS011;34625;47.176;27.548;2023-05-24T10:50:38;4.72;;;3.03;;
48805;SDS011;34625;47.176;27.548;2023-05-24T10:53:12;3.40;;;2.65;;
48805;SDS011;34625;47.176;27.548;2023-05-24T10:55:55;3.92;;;3.38;;
48805;SDS011;34625;47.176;27.548;2023-05-24T10:58:26;4.70;;;2.88;;
48805;SDS011;34625;47.176;27.548;2023-05-24T11:01:13;4.93;;;3.00;;
48805;SDS011;34625;47.176;27.548;2023-05-24T11:03:51;5.68;;;3.40;;
48805;SDS011;34625;47.176;27.548;2023-05-24T11:06:17;5.53;;;3.22;;
48805;SDS011;34625;47.176;27.548;2023-05-24T11:08:44;3.10;;;2.35;;
48805;SDS011;34625;47.176;27.548;2023-05-24T11:11:13;3.70;;;2.20;;
48805;SDS011;34625;47.176;27.548;2023-05-24T11:13:45;4.57;;;2.42;;
48805;SDS011;34625;47.176;27.548;2023-05-24T11:19:19;3.35;;;2.20;;
48805;SDS011;34625;47.176;27.548;2023-05-24T11:21:46;2.40;;;1.90;;
48805;SDS011;34625;47.176;27.548;2023-05-24T11:24:15;3.63;;;2.33;;
48805;SDS011;34625;47.176;27.548;2023-05-24T11:26:43;3.72;;;2.25;;
48805;SDS011;34625;47.176;27.548;2023-05-24T11:29:11;4.55;;;2.17;;
48805;SDS011;34625;47.176;27.548;2023-05-24T11:31:48;2.15;;;2.00;;
48805;SDS011;34625;47.176;27.548;2023-05-24T11:34:21;3.67;;;2.25;;
48805;SDS011;34625;47.176;27.548;2023-05-24T11:36:49;2.30;;;1.63;;
48805;SDS011;34625;47.176;27.548;2023-05-24T11:39:19;2.63;;;2.17;;
48805;SDS011;34625;47.176;27.548;2023-05-24T11:41:46;2.75;;;2.47;;
48805;SDS011;34625;47.176;27.548;2023-05-24T11:44:15;5.35;;;2.83;;
48805;SDS011;34625;47.176;27.548;2023-05-24T11:46:44;3.30;;;2.33;;
48805;SDS011;34625;47.176;27.548;2023-05-24T11:49:11;3.38;;;2.15;;
48805;SDS011;34625;47.176;27.548;2023-05-24T11:51:38;2.38;;;2.17;;
48805;SDS011;34625;47.176;27.548;2023-05-24T11:54:04;2.33;;;2.08;;
48805;SDS011;34625;47.176;27.548;2023-05-24T11:56:30;2.70;;;1.95;;
48805;SDS011;34625;47.176;27.548;2023-05-24T12:01:42;1.90;;;1.67;;
48805;SDS011;34625;47.176;27.548;2023-05-24T12:04:09;3.50;;;2.78;;
48805;SDS011;34625;47.176;27.548;2023-05-24T12:06:39;5.68;;;2.22;;
48805;SDS011;34625;47.176;27.548;2023-05-24T12:09:07;2.35;;;1.92;;
48805;SDS011;34625;47.176;27.548;2023-05-24T12:11:41;4.88;;;2.45;;
48805;SDS011;34625;47.176;27.548;2023-05-24T12:14:15;6.43;;;2.22;;
48805;SDS011;34625;47.176;27.548;2023-05-24T12:16:43;3.13;;;2.38;;
48805;SDS011;34625;47.176;27.548;2023-05-24T12:19:19;3.25;;;1.80;;
48805;SDS011;34625;47.176;27.548;2023-05-24T12:21:47;3.22;;;2.55;;
48805;SDS011;34625;47.176;27.548;2023-05-24T12:24:15;3.10;;;2.03;;
48805;SDS011;34625;47.176;27.548;2023-05-24T12:26:48;4.03;;;2.20;;
48805;SDS011;34625;47.176;27.548;2023-05-24T12:29:15;4.47;;;2.00;;
48805;SDS011;34625;47.176;27.548;2023-05-24T12:31:43;2.25;;;1.85;;
48805;SDS011;34625;47.176;27.548;2023-05-24T12:36:45;2.95;;;1.77;;
48805;SDS011;34625;47.176;27.548;2023-05-24T12:39:22;2.80;;;1.95;;
48805;SDS011;34625;47.176;27.548;2023-05-24T12:41:55;3.03;;;2.20;;
48805;SDS011;34625;47.176;27.548;2023-05-24T12:44:26;3.35;;;2.13;;
48805;SDS011;34625;47.176;27.548;2023-05-24T12:46:58;3.35;;;2.10;;
48805;SDS011;34625;47.176;27.548;2023-05-24T12:49:25;3.42;;;2.28;;
48805;SDS011;34625;47.176;27.548;2023-05-24T12:51:52;2.20;;;2.00;;
48805;SDS011;34625;47.176;27.548;2023-05-24T12:54:24;3.80;;;2.03;;
48805;SDS011;34625;47.176;27.548;2023-05-24T12:56:51;2.50;;;1.80;;
48805;SDS011;34625;47.176;27.548;2023-05-24T12:59:18;3.33;;;2.30;;
48805;SDS011;34625;47.176;27.548;2023-05-24T13:01:44;2.00;;;1.75;;
48805;SDS011;34625;47.176;27.548;2023-05-24T13:04:16;2.88;;;2.22;;
48805;SDS011;34625;47.176;27.548;2023-05-24T13:06:43;5.30;;;2.20;;
48805;SDS011;34625;47.176;27.548;2023-05-24T13:09:10;2.53;;;2.33;;
48805;SDS011;34625;47.176;27.548;2023-05-24T13:11:36;2.25;;;2.05;;
48805;SDS011;34625;47.176;27.548;2023-05-24T13:14:02;4.20;;;2.55;;
48805;SDS011;34625;47.176;27.548;2023-05-24T13:16:29;4.32;;;2.40;;
48805;SDS011;34625;47.176;27.548;2023-05-24T13:18:55;2.22;;;1.83;;
48805;SDS011;34625;47.176;27.548;2023-05-24T13:21:21;4.25;;;2.17;;
48805;SDS011;34625;47.176;27.548;2023-05-24T13:23:47;7.13;;;2.53;;
48805;SDS011;34625;47.176;27.548;2023-05-24T13:26:13;3.78;;;2.28;;
48805;SDS011;34625;47.176;27.548;2023-05-24T13:28:39;3.22;;;2.33;;
48805;SDS011;34625;47.176;27.548;2023-05-24T13:31:06;3.95;;;2.53;;
48805;SDS011;34625;47.176;27.548;2023-05-24T13:33:33;2.85;;;2.35;;
48805;SDS011;34625;47.176;27.548;2023-05-24T13:35:59;2.28;;;2.08;;
48805;SDS011;34625;47.176;27.548;2023-05-24T13:38:26;2.40;;;2.05;;
48805;SDS011;34625;47.176;27.548;2023-05-24T13:40:53;5.55;;;2.58;;
48805;SDS011;34625;47.176;27.548;2023-05-24T13:43:19;2.33;;;1.98;;
48805;SDS011;34625;47.176;27.548;2023-05-24T13:45:48;3.00;;;2.08;;
48805;SDS011;34625;47.176;27.548;2023-05-24T13:48:14;2.60;;;2.22;;
48805;SDS011;34625;47.176;27.548;2023-05-24T13:50:40;5.43;;;2.70;;
48805;SDS011;34625;47.176;27.548;2023-05-24T13:53:06;3.42;;;2.25;;
48805;SDS011;34625;47.176;27.548;2023-05-24T13:55:33;2.88;;;2.15;;
48805;SDS011;34625;47.176;27.548;2023-05-24T13:58:01;2.40;;;2.20;;
48805;SDS011;34625;47.176;27.548;2023-05-24T14:00:29;2.65;;;2.33;;
48805;SDS011;34625;47.176;27.548;2023-05-24T14:02:55;2.45;;;2.25;;
48805;SDS011;34625;47.176;27.548;2023-05-24T14:05:22;5.50;;;2.63;;
48805;SDS011;34625;47.176;27.548;2023-05-24T14:07:48;4.25;;;2.42;;
48805;SDS011;34625;47.176;27.548;2023-05-24T14:10:14;3.28;;;2.22;;
48805;SDS011;34625;47.176;27.548;2023-05-24T14:12:40;3.60;;;2.35;;
48805;SDS011;34625;47.176;27.548;2023-05-24T14:15:07;3.00;;;2.22;;
48805;SDS011;34625;47.176;27.548;2023-05-24T14:17:33;3.03;;;1.95;;
48805;SDS011;34625;47.176;27.548;2023-05-24T14:19:59;2.78;;;2.45;;
48805;SDS011;34625;47.176;27.548;2023-05-24T14:22:25;3.40;;;2.60;;
48805;SDS011;34625;47.176;27.548;2023-05-24T14:24:53;5.18;;;2.08;;
48805;SDS011;34625;47.176;27.548;2023-05-24T14:27:20;2.42;;;2.20;;
48805;SDS011;34625;47.176;27.548;2023-05-24T14:29:46;2.42;;;2.17;;
48805;SDS011;34625;47.176;27.548;2023-05-24T14:32:12;2.63;;;2.10;;
48805;SDS011;34625;47.176;27.548;2023-05-24T14:34:40;4.05;;;2.25;;
48805;SDS011;34625;47.176;27.548;2023-05-24T14:37:06;4.05;;;2.70;;
48805;SDS011;34625;47.176;27.548;2023-05-24T14:39:32;2.92;;;2.25;;
48805;SDS011;34625;47.176;27.548;2023-05-24T14:41:58;2.70;;;2.10;;
48805;SDS011;34625;47.176;27.548;2023-05-24T14:44:25;3.03;;;2.13;;
48805;SDS011;34625;47.176;27.548;2023-05-24T14:46:52;2.60;;;2.38;;
48805;SDS011;34625;47.176;27.548;2023-05-24T14:49:18;2.20;;;2.00;;
48805;SDS011;34625;47.176;27.548;2023-05-24T14:51:45;3.53;;;2.58;;
48805;SDS011;34625;47.176;27.548;2023-05-24T14:54:14;2.95;;;2.15;;
48805;SDS011;34625;47.176;27.548;2023-05-24T14:56:40;4.65;;;2.42;;
48805;SDS011;34625;47.176;27.548;2023-05-24T14:59:13;4.35;;;2.63;;